createdAt,value
2023-02-09T00:01:27.673Z,57.89
2023-02-09T00:03:54.540Z,58.26
2023-02-09T00:06:23.401Z,58.70
2023-02-09T00:08:50.605Z,59.17
2023-02-09T00:11:43.545Z,59.30
2023-02-09T00:14:11.915Z,59.34
2023-02-09T00:16:38.630Z,59.35
2023-02-09T00:19:05.428Z,59.62
2023-02-09T00:21:32.410Z,59.84
2023-02-09T00:23:59.474Z,59.76
2023-02-09T00:26:26.542Z,59.80
2023-02-09T00:28:53.085Z,59.64
2023-02-09T00:31:19.954Z,59.83
2023-02-09T00:33:46.618Z,60.21
2023-02-09T00:36:14.817Z,60.15
2023-02-09T00:38:42.737Z,60.41
2023-02-09T00:41:10.234Z,60.27
2023-02-09T00:43:36.792Z,60.51
2023-02-09T00:46:03.706Z,59.87
2023-02-09T00:48:30.717Z,60.05
2023-02-09T00:50:57.565Z,60.23
2023-02-09T00:53:24.739Z,60.51
2023-02-09T00:55:51.533Z,60.59
2023-02-09T00:58:19.059Z,60.87
2023-02-09T01:00:46.354Z,61.06
2023-02-09T01:03:13.088Z,60.92
2023-02-09T01:05:41.682Z,60.70
2023-02-09T01:08:08.578Z,60.84
2023-02-09T01:10:35.317Z,60.66
2023-02-09T01:13:01.909Z,61.21
2023-02-09T01:15:28.531Z,60.98
2023-02-09T01:17:55.283Z,61.21
2023-02-09T01:20:21.881Z,61.17
2023-02-09T01:22:48.516Z,60.63
2023-02-09T01:25:15.082Z,61.20
2023-02-09T01:27:42.319Z,61.04
2023-02-09T01:30:09.730Z,61.69
2023-02-09T01:32:37.383Z,61.84
2023-02-09T01:35:04.507Z,61.45
2023-02-09T01:37:33.125Z,61.54
2023-02-09T01:39:59.691Z,62.22
2023-02-09T01:42:26.258Z,62.28
2023-02-09T01:45:07.859Z,62.16
2023-02-09T01:47:45.895Z,61.85
2023-02-09T01:50:13.759Z,62.28
2023-02-09T01:52:41.194Z,62.39
2023-02-09T01:55:12.562Z,62.31
2023-02-09T01:57:44.318Z,61.79
2023-02-09T02:00:13.360Z,62.54
2023-02-09T02:02:41.692Z,62.34
2023-02-09T02:05:09.039Z,62.54
2023-02-09T02:08:06.084Z,63.05
2023-02-09T02:10:33.048Z,63.02
2023-02-09T02:13:00.057Z,62.97
2023-02-09T02:16:25.336Z,62.75
2023-02-09T02:19:21.030Z,63.04
2023-02-09T02:22:07.923Z,62.71
2023-02-09T02:24:43.527Z,63.02
2023-02-09T02:27:36.974Z,63.02
2023-02-09T02:30:14.258Z,63.13
2023-02-09T02:32:43.563Z,63.67
2023-02-09T02:35:16.084Z,63.87
2023-02-09T02:38:01.364Z,63.32
2023-02-09T02:40:52.572Z,64.05
2023-02-09T02:43:31.000Z,64.03
2023-02-09T02:46:06.031Z,64.00
2023-02-09T02:48:47.791Z,63.77
2023-02-09T02:51:27.712Z,64.37
2023-02-09T02:53:59.296Z,64.18
2023-02-09T02:56:31.816Z,64.42
2023-02-09T02:59:03.154Z,64.28
2023-02-09T03:01:39.856Z,64.38
2023-02-09T03:04:08.589Z,64.57
2023-02-09T03:06:37.502Z,64.13
2023-02-09T03:09:04.914Z,64.37
2023-02-09T03:11:36.774Z,64.22
2023-02-09T03:14:12.387Z,64.46
2023-02-09T03:16:52.688Z,64.22
2023-02-09T03:19:46.135Z,64.99
2023-02-09T03:22:12.659Z,64.46
2023-02-09T03:25:02.925Z,64.90
2023-02-09T03:27:35.767Z,65.33
2023-02-09T03:30:04.684Z,64.92
2023-02-09T03:32:32.993Z,65.59
2023-02-09T03:35:00.034Z,65.34
2023-02-09T03:37:26.691Z,65.39
2023-02-09T03:39:53.234Z,65.00
2023-02-09T03:42:19.890Z,65.27
2023-02-09T03:44:46.488Z,65.07
2023-02-09T03:47:13.148Z,65.33
2023-02-09T03:49:41.512Z,65.02
2023-02-09T03:52:10.720Z,65.62
2023-02-09T03:54:37.686Z,66.00
2023-02-09T03:57:04.862Z,65.92
2023-02-09T03:59:35.362Z,65.94
2023-02-09T04:02:02.737Z,65.75
2023-02-09T04:04:29.369Z,66.37
2023-02-09T04:06:56.388Z,65.81
2023-02-09T04:09:24.017Z,66.45
2023-02-09T04:11:51.089Z,65.85
2023-02-09T04:14:17.652Z,66.37
2023-02-09T04:16:44.511Z,66.30
2023-02-09T04:19:11.355Z,66.20
2023-02-09T04:21:38.925Z,66.04
2023-02-09T04:24:06.486Z,66.64
2023-02-09T04:26:33.672Z,65.94
2023-02-09T04:29:00.272Z,66.61
2023-02-09T04:31:27.342Z,66.30
2023-02-09T04:33:54.006Z,65.92
2023-02-09T04:36:23.345Z,65.80
2023-02-09T04:38:50.542Z,66.12
2023-02-09T04:41:17.271Z,66.69
2023-02-09T04:43:43.834Z,66.45
2023-02-09T04:46:15.864Z,66.54
2023-02-09T04:48:43.056Z,66.46
2023-02-09T04:51:09.807Z,66.67
2023-02-09T04:53:36.633Z,66.16
2023-02-09T04:56:03.829Z,66.39
2023-02-09T04:58:49.317Z,66.59
2023-02-09T05:01:20.801Z,66.88
2023-02-09T05:03:47.410Z,66.77
2023-02-09T05:06:14.460Z,66.75
2023-02-09T05:08:41.105Z,66.73
2023-02-09T05:11:07.636Z,66.88
2023-02-09T05:13:34.823Z,67.03
2023-02-09T05:16:08.480Z,67.02
2023-02-09T05:18:36.082Z,66.84
2023-02-09T05:21:02.936Z,66.72
2023-02-09T05:23:29.921Z,67.04
2023-02-09T05:25:56.610Z,67.10
2023-02-09T05:28:24.415Z,66.94
2023-02-09T05:30:53.756Z,67.31
2023-02-09T05:33:21.871Z,67.38
2023-02-09T05:35:48.522Z,67.04
2023-02-09T05:38:15.112Z,67.61
2023-02-09T05:40:43.104Z,67.81
2023-02-09T05:43:11.433Z,67.50
2023-02-09T05:45:38.064Z,67.30
2023-02-09T05:48:04.786Z,67.67
2023-02-09T05:50:31.397Z,67.49
2023-02-09T05:53:00.800Z,67.58
2023-02-09T05:55:27.835Z,69.93
2023-02-09T05:57:54.526Z,72.82
2023-02-09T06:00:21.567Z,72.33
2023-02-09T06:02:48.107Z,68.56
2023-02-09T06:05:14.800Z,65.37
2023-02-09T06:07:41.461Z,60.98
2023-02-09T06:10:08.575Z,59.82
2023-02-09T06:12:35.180Z,60.17
2023-02-09T06:15:01.957Z,60.51
2023-02-09T06:17:28.562Z,61.40
2023-02-09T06:19:55.137Z,61.87
2023-02-09T06:22:21.691Z,62.53
2023-02-09T06:24:48.262Z,63.31
2023-02-09T06:27:14.844Z,63.41
2023-02-09T06:29:41.518Z,63.60
2023-02-09T06:32:08.176Z,64.38
2023-02-09T06:34:34.776Z,64.05
2023-02-09T06:37:01.373Z,64.33
2023-02-09T06:39:28.089Z,64.67
2023-02-09T06:41:54.655Z,64.73
2023-02-09T06:44:21.468Z,65.56
2023-02-09T06:46:48.079Z,65.00
2023-02-09T06:49:14.692Z,64.95
2023-02-09T06:51:41.455Z,65.71
2023-02-09T06:54:08.256Z,65.29
2023-02-09T06:56:34.784Z,66.21
2023-02-09T06:59:01.364Z,66.20
2023-02-09T07:01:27.964Z,66.31
2023-02-09T07:03:54.578Z,66.05
2023-02-09T07:06:22.182Z,66.73
2023-02-09T07:08:49.952Z,66.93
2023-02-09T07:11:18.303Z,67.02
2023-02-09T07:13:45.966Z,67.61
2023-02-09T07:16:13.273Z,67.15
2023-02-09T07:18:40.360Z,67.56
2023-02-09T07:21:15.623Z,67.47
2023-02-09T07:26:26.638Z,67.10
2023-02-09T07:28:53.239Z,67.50
2023-02-09T07:31:20.061Z,68.00
2023-02-09T07:33:47.148Z,67.53
2023-02-09T07:36:16.256Z,68.05
2023-02-09T07:38:43.434Z,67.90
2023-02-09T07:41:19.659Z,67.71
2023-02-09T07:43:47.124Z,68.04
2023-02-09T07:46:18.630Z,67.90
2023-02-09T07:48:45.297Z,67.67
2023-02-09T07:51:16.707Z,68.12
2023-02-09T07:53:43.417Z,67.75
2023-02-09T07:56:09.983Z,68.23
2023-02-09T07:58:36.662Z,69.00
2023-02-09T08:01:07.237Z,68.37
2023-02-09T08:03:38.792Z,68.43
2023-02-09T08:06:30.416Z,68.67
2023-02-09T08:09:04.371Z,68.69
2023-02-09T08:11:58.545Z,68.50
2023-02-09T08:14:41.698Z,68.30
2023-02-09T08:17:24.156Z,68.52
2023-02-09T08:20:00.155Z,68.43
2023-02-09T08:22:31.392Z,68.33
2023-02-09T08:24:59.537Z,68.51
2023-02-09T08:27:26.403Z,68.04
2023-02-09T08:29:53.199Z,67.90
2023-02-09T08:32:19.733Z,67.67
2023-02-09T08:34:46.298Z,67.74
2023-02-09T08:37:12.862Z,67.87
2023-02-09T08:39:39.385Z,67.88
2023-02-09T08:42:06.181Z,67.67
2023-02-09T08:44:32.884Z,67.45
2023-02-09T08:46:59.455Z,67.15
2023-02-09T08:49:26.185Z,67.34
2023-02-09T08:51:52.745Z,66.77
2023-02-09T08:54:19.720Z,67.03
2023-02-09T08:56:46.338Z,66.83
2023-02-09T08:59:13.124Z,66.31
2023-02-09T09:01:40.551Z,65.60
2023-02-09T09:04:07.695Z,65.43
2023-02-09T09:06:34.426Z,65.68
2023-02-09T09:09:01.026Z,65.42
2023-02-09T09:11:28.169Z,65.16
2023-02-09T09:13:54.725Z,64.81
2023-02-09T09:16:23.080Z,64.47
2023-02-09T09:18:50.227Z,64.49
2023-02-09T09:21:18.685Z,64.45
2023-02-09T09:23:46.528Z,64.31
2023-02-09T09:26:14.260Z,63.99
2023-02-09T09:28:40.995Z,63.99
2023-02-09T09:31:12.904Z,63.49
2023-02-09T09:33:40.395Z,63.52
2023-02-09T09:36:07.914Z,63.06
2023-02-09T09:38:35.772Z,62.66
2023-02-09T09:41:04.834Z,62.80
2023-02-09T09:43:39.851Z,62.61
2023-02-09T09:46:12.464Z,62.31
2023-02-09T09:48:49.149Z,62.22
2023-02-09T09:51:22.656Z,62.17
2023-02-09T09:53:53.381Z,61.77
2023-02-09T09:56:21.426Z,61.52
2023-02-09T09:58:49.929Z,61.35
2023-02-09T10:01:20.580Z,60.94
2023-02-09T10:03:47.662Z,60.93
2023-02-09T10:06:18.575Z,60.69
2023-02-09T10:09:03.091Z,60.64
2023-02-09T10:11:36.383Z,60.56
2023-02-09T10:14:03.041Z,60.49
2023-02-09T10:16:35.059Z,60.09
2023-02-09T10:19:04.556Z,59.70
2023-02-09T10:21:34.177Z,59.46
2023-02-09T10:24:00.655Z,59.17
2023-02-09T10:26:37.137Z,58.79
2023-02-09T10:29:24.627Z,58.80
2023-02-09T10:31:59.888Z,58.37
2023-02-09T10:34:42.982Z,58.20
2023-02-09T10:37:12.983Z,58.28
2023-02-09T10:39:40.044Z,57.48
2023-02-09T10:42:28.499Z,57.55
2023-02-09T10:44:57.645Z,57.62
2023-02-09T10:47:30.121Z,57.68
2023-02-09T10:50:18.138Z,57.39
2023-02-09T10:52:59.793Z,57.30
2023-02-09T10:55:36.421Z,57.30
2023-02-09T10:58:10.961Z,56.79
2023-02-09T11:00:47.996Z,56.19
2023-02-09T11:03:27.839Z,56.23
2023-02-09T11:06:03.725Z,55.97
2023-02-09T11:09:14.142Z,55.67
2023-02-09T11:11:41.790Z,55.50
2023-02-09T11:14:17.213Z,55.25
2023-02-09T11:16:55.624Z,54.54
2023-02-09T11:19:56.108Z,54.90
2023-02-09T11:23:05.686Z,54.57
2023-02-09T11:25:45.416Z,54.29
2023-02-09T11:28:41.111Z,53.80
2023-02-09T11:31:32.548Z,53.30
2023-02-09T11:34:14.072Z,52.93
2023-02-09T11:36:43.602Z,52.92
2023-02-09T11:39:31.759Z,52.53
2023-02-09T11:42:32.212Z,51.95
2023-02-09T11:45:10.984Z,51.76
2023-02-09T11:47:46.819Z,51.61
2023-02-09T11:50:37.845Z,51.15
2023-02-09T11:53:13.863Z,50.96
2023-02-09T11:55:48.550Z,51.02
2023-02-09T11:58:36.201Z,50.52
2023-02-09T12:01:15.131Z,50.39
2023-02-09T12:03:53.665Z,50.56
2023-02-09T12:06:23.104Z,50.50
2023-02-09T12:08:57.347Z,49.63
2023-02-09T12:11:30.656Z,49.58
2023-02-09T12:14:38.773Z,49.55
2023-02-09T12:17:31.651Z,49.09
2023-02-09T12:20:01.432Z,48.58
2023-02-09T12:22:34.100Z,48.53
2023-02-09T12:25:14.468Z,48.41
2023-02-09T12:27:43.231Z,47.43
2023-02-09T12:30:41.977Z,47.92
2023-02-09T12:33:17.330Z,47.84
2023-02-09T12:36:00.585Z,47.55
2023-02-09T12:38:53.615Z,47.60
2023-02-09T12:41:25.564Z,47.42
2023-02-09T12:44:10.542Z,47.39
2023-02-09T12:46:51.462Z,47.43
2023-02-09T12:49:21.209Z,47.28
2023-02-09T12:51:50.547Z,47.12
2023-02-09T12:54:26.394Z,46.83
2023-02-09T12:56:53.300Z,46.38
2023-02-09T12:59:23.167Z,45.88
2023-02-09T13:02:07.905Z,46.18
2023-02-09T13:04:51.250Z,45.50
2023-02-09T13:07:35.445Z,44.71
2023-02-09T13:10:09.095Z,44.91
2023-02-09T13:12:42.844Z,45.12
2023-02-09T13:15:16.018Z,44.89
2023-02-09T13:17:48.304Z,44.67
2023-02-09T13:20:45.862Z,44.52
2023-02-09T13:23:22.918Z,43.87
2023-02-09T13:25:49.562Z,43.44
2023-02-09T13:28:19.777Z,43.15
2023-02-09T13:30:46.903Z,43.09
2023-02-09T13:33:48.522Z,43.21
2023-02-09T13:37:02.504Z,43.21
2023-02-09T13:39:35.082Z,42.21
2023-02-09T13:42:01.751Z,42.08
2023-02-09T13:44:32.041Z,41.49
2023-02-09T13:47:07.261Z,41.45
2023-02-09T13:49:33.848Z,40.77
2023-02-09T13:52:12.398Z,40.89
2023-02-09T13:54:40.548Z,39.80
2023-02-09T13:57:31.881Z,39.37
2023-02-09T14:00:12.675Z,38.60
2023-02-09T14:02:39.754Z,38.09
2023-02-09T14:05:08.510Z,38.54
2023-02-09T14:07:38.362Z,38.39
2023-02-09T14:10:16.753Z,37.65
2023-02-09T14:12:52.129Z,37.35
2023-02-09T14:16:07.717Z,38.29
2023-02-09T14:18:49.508Z,37.32
2023-02-09T14:21:20.385Z,36.73
2023-02-09T14:24:13.490Z,36.87
2023-02-09T14:26:54.017Z,36.13
2023-02-09T14:29:38.138Z,36.15
2023-02-09T14:32:33.585Z,36.54
2023-02-09T14:35:19.716Z,35.21
2023-02-09T14:37:47.544Z,35.83
2023-02-09T14:40:28.282Z,35.58
2023-02-09T14:43:22.035Z,35.15
2023-02-09T14:45:59.410Z,33.38
2023-02-09T14:48:28.774Z,32.85
2023-02-09T14:51:01.681Z,32.16
2023-02-09T14:53:31.217Z,31.94
2023-02-09T14:55:58.532Z,32.62
2023-02-09T14:58:30.888Z,33.01
2023-02-09T15:01:00.495Z,32.84
2023-02-09T15:03:27.507Z,33.21
2023-02-09T15:06:05.654Z,33.88
2023-02-09T15:08:36.430Z,33.34
2023-02-09T15:11:27.681Z,34.09
2023-02-09T15:13:59.934Z,34.75
2023-02-09T15:16:26.558Z,36.05
2023-02-09T15:18:53.169Z,36.46
2023-02-09T15:21:19.721Z,36.21
2023-02-09T15:23:46.317Z,36.07
2023-02-09T15:26:26.657Z,36.71
2023-02-09T15:28:53.863Z,36.91
2023-02-09T15:31:20.464Z,36.68
2023-02-09T15:33:47.191Z,36.79
2023-02-09T15:36:19.409Z,37.30
2023-02-09T15:38:46.281Z,37.61
2023-02-09T15:41:31.351Z,38.10
2023-02-09T15:44:17.271Z,38.01
2023-02-09T15:47:04.746Z,38.43
2023-02-09T15:49:32.003Z,39.08
2023-02-09T15:51:58.640Z,39.26
2023-02-09T15:54:32.835Z,39.53
2023-02-09T15:57:01.066Z,39.42
2023-02-09T15:59:27.663Z,39.33
2023-02-09T16:01:54.336Z,39.68
2023-02-09T16:04:20.984Z,40.09
2023-02-09T16:06:53.117Z,40.57
2023-02-09T16:09:23.986Z,41.20
2023-02-09T16:11:50.682Z,41.36
2023-02-09T16:14:23.130Z,41.10
2023-02-09T16:16:50.265Z,41.55
2023-02-09T16:19:17.312Z,41.75
2023-02-09T16:21:47.882Z,42.33
2023-02-09T16:24:47.219Z,42.55
2023-02-09T16:27:23.769Z,42.90
2023-02-09T16:29:50.554Z,43.31
2023-02-09T16:32:19.108Z,43.68
2023-02-09T16:34:45.906Z,43.78
2023-02-09T16:37:18.366Z,44.54
2023-02-09T16:39:45.794Z,44.92
2023-02-09T16:42:14.782Z,45.39
2023-02-09T16:44:42.350Z,45.47
2023-02-09T16:47:21.492Z,45.57
2023-02-09T16:49:57.791Z,45.99
2023-02-09T16:52:27.715Z,45.97
2023-02-09T16:55:00.941Z,45.90
2023-02-09T16:57:28.940Z,45.91
2023-02-09T16:59:56.249Z,45.67
2023-02-09T17:02:31.948Z,46.30
2023-02-09T17:04:59.405Z,46.85
2023-02-09T17:07:39.817Z,46.88
2023-02-09T17:10:17.119Z,47.90
2023-02-09T17:12:44.024Z,47.77
2023-02-09T17:15:29.017Z,47.47
2023-02-09T17:18:02.306Z,46.92
2023-02-09T17:20:35.502Z,46.68
2023-02-09T17:23:02.099Z,46.70
2023-02-09T17:25:28.789Z,46.76
2023-02-09T17:27:55.435Z,46.14
2023-02-09T17:30:22.011Z,46.25
2023-02-09T17:32:55.621Z,46.06
2023-02-09T17:35:44.588Z,46.27
2023-02-09T17:38:21.982Z,46.06
2023-02-09T17:40:49.495Z,46.95
2023-02-09T17:43:16.270Z,47.42
2023-02-09T17:45:47.786Z,47.94
2023-02-09T17:48:16.566Z,48.17
2023-02-09T17:50:48.658Z,48.82
2023-02-09T17:53:24.141Z,49.26
2023-02-09T17:55:54.048Z,49.55
2023-02-09T17:58:20.597Z,49.75
2023-02-09T18:00:47.137Z,49.70
2023-02-09T18:03:19.381Z,49.98
2023-02-09T18:05:51.037Z,50.18
2023-02-09T18:08:18.911Z,49.85
2023-02-09T18:10:45.483Z,50.54
2023-02-09T18:13:20.661Z,50.85
2023-02-09T18:15:48.805Z,50.80
2023-02-09T18:18:15.971Z,51.17
2023-02-09T18:20:42.703Z,51.50
2023-02-09T18:23:15.028Z,51.69
2023-02-09T18:25:41.657Z,51.94
2023-02-09T18:28:08.734Z,51.70
2023-02-09T18:30:38.360Z,52.10
2023-02-09T18:33:07.057Z,52.19
2023-02-09T18:35:39.549Z,52.58
2023-02-09T18:38:08.848Z,52.69
2023-02-09T18:40:36.853Z,53.00
2023-02-09T18:43:04.975Z,53.13
2023-02-09T18:45:32.196Z,53.10
2023-02-09T18:47:59.299Z,53.29
2023-02-09T18:50:31.694Z,53.29
2023-02-09T18:53:00.616Z,53.63
2023-02-09T18:55:29.683Z,53.71
2023-02-09T18:57:59.114Z,53.77
2023-02-09T19:00:26.450Z,53.83
2023-02-09T19:02:57.474Z,54.07
2023-02-09T19:05:26.253Z,54.07
2023-02-09T19:07:53.316Z,54.27
2023-02-09T19:10:21.188Z,54.59
2023-02-09T19:12:47.859Z,54.66
2023-02-09T19:15:18.633Z,54.52
2023-02-09T19:17:45.897Z,54.64
2023-02-09T19:20:16.603Z,54.62
2023-02-09T19:22:43.261Z,55.12
2023-02-09T19:25:10.074Z,55.25
2023-02-09T19:27:37.647Z,55.00
2023-02-09T19:30:05.079Z,55.02
2023-02-09T19:32:32.107Z,55.12
2023-02-09T19:34:58.711Z,55.22
2023-02-09T19:37:25.428Z,55.19
2023-02-09T19:40:04.402Z,55.36
2023-02-09T19:42:32.861Z,55.58
2023-02-09T19:45:00.353Z,55.54
2023-02-09T19:47:27.513Z,55.73
2023-02-09T19:49:55.802Z,55.98
2023-02-09T19:52:23.380Z,55.86
2023-02-09T19:54:50.683Z,55.83
2023-02-09T19:57:18.975Z,56.15
2023-02-09T19:59:45.789Z,56.16
2023-02-09T20:02:13.646Z,56.25
2023-02-09T20:04:41.146Z,56.29
2023-02-09T20:07:07.695Z,56.44
2023-02-09T20:09:34.876Z,56.68
2023-02-09T20:12:01.519Z,56.56
2023-02-09T20:14:31.351Z,56.82
2023-02-09T20:16:59.632Z,56.85
2023-02-09T20:19:26.596Z,56.99
2023-02-09T20:21:53.175Z,57.14
2023-02-09T20:24:19.945Z,57.32
2023-02-09T20:26:46.713Z,57.49
2023-02-09T20:29:13.717Z,57.78
2023-02-09T20:31:42.141Z,57.73
2023-02-09T20:34:12.331Z,57.98
2023-02-09T20:36:41.325Z,57.91
2023-02-09T20:39:10.946Z,58.11
2023-02-09T20:41:37.477Z,58.04
2023-02-09T20:44:22.628Z,58.33
2023-02-09T20:46:57.738Z,58.09
2023-02-09T20:49:31.084Z,58.17
2023-02-09T20:51:58.531Z,58.67
2023-02-09T20:54:25.319Z,58.65
2023-02-09T20:56:51.907Z,58.96
2023-02-09T20:59:18.622Z,59.05
2023-02-09T21:01:46.008Z,59.30
2023-02-09T21:04:12.837Z,59.40
2023-02-09T21:06:39.457Z,59.53
2023-02-09T21:09:08.230Z,59.58
2023-02-09T21:11:35.084Z,59.57
2023-02-09T21:14:02.029Z,59.80
2023-02-09T21:16:29.028Z,60.05
2023-02-09T21:18:55.622Z,59.95
2023-02-09T21:21:22.724Z,60.10
2023-02-09T21:23:49.342Z,60.09
2023-02-09T21:26:18.149Z,60.13
2023-02-09T21:28:45.386Z,60.49
2023-02-09T21:31:13.939Z,60.64
2023-02-09T21:33:40.524Z,60.38
2023-02-09T21:36:07.669Z,60.91
2023-02-09T21:38:36.999Z,60.79
2023-02-09T21:41:09.364Z,61.47
2023-02-09T21:43:35.978Z,61.32
2023-02-09T21:46:02.655Z,61.52
2023-02-09T21:48:29.243Z,61.35
2023-02-09T21:50:56.093Z,61.57
2023-02-09T21:53:22.758Z,61.52
2023-02-09T21:55:49.305Z,61.74
2023-02-09T21:58:15.845Z,61.81
2023-02-09T22:00:42.512Z,61.53
2023-02-09T22:03:09.492Z,62.33
2023-02-09T22:05:36.062Z,62.21
2023-02-09T22:08:02.601Z,61.97
2023-02-09T22:10:29.125Z,62.24
2023-02-09T22:12:55.682Z,62.01
2023-02-09T22:15:22.279Z,62.12
2023-02-09T22:17:49.281Z,62.55
2023-02-09T22:20:15.890Z,62.36
2023-02-09T22:22:45.303Z,62.24
2023-02-09T22:25:11.853Z,62.56
2023-02-09T22:27:38.455Z,62.45
2023-02-09T22:30:05.229Z,63.12
2023-02-09T22:32:31.793Z,62.98
2023-02-09T22:34:58.330Z,63.14
2023-02-09T22:37:24.921Z,62.75
2023-02-09T22:39:51.477Z,62.82
2023-02-09T22:42:18.129Z,62.88
2023-02-09T22:44:44.664Z,63.23
2023-02-09T22:47:11.313Z,62.87
2023-02-09T22:49:37.852Z,63.42
2023-02-09T22:52:04.541Z,63.64
2023-02-09T22:54:31.121Z,63.47
2023-02-09T22:56:57.678Z,63.71
2023-02-09T22:59:24.261Z,63.62
2023-02-09T23:01:50.824Z,63.50
2023-02-09T23:04:17.490Z,63.39
2023-02-09T23:06:44.220Z,63.38
2023-02-09T23:09:12.576Z,64.28
2023-02-09T23:11:39.372Z,63.97
2023-02-09T23:14:10.052Z,63.67
2023-02-09T23:16:38.696Z,63.77
2023-02-09T23:19:07.429Z,64.10
2023-02-09T23:21:37.195Z,63.78
2023-02-09T23:24:05.037Z,63.66
2023-02-09T23:26:32.047Z,64.12
2023-02-09T23:29:00.948Z,63.56
2023-02-09T23:31:27.867Z,64.08
2023-02-09T23:33:54.754Z,64.07
2023-02-09T23:36:24.237Z,64.35
2023-02-09T23:38:56.860Z,64.02
2023-02-09T23:41:24.199Z,64.16
2023-02-09T23:43:51.789Z,64.40
2023-02-09T23:46:22.590Z,64.33
2023-02-09T23:48:50.098Z,64.13
2023-02-09T23:51:21.601Z,64.34
2023-02-09T23:53:48.433Z,64.11
2023-02-09T23:56:17.379Z,64.34
2023-02-09T23:58:46.432Z,64.39
